Time;durP1;ratioP1;P1;durP2;ratioP2;P2;SDS_P1;SDS_P2;PMS_P1;PMS_P2;Temp;Humidity;BMP_temperature;BMP_pressure;BME280_temperature;BME280_humidity;BME280_pressure;Samples;Min_cycle;Max_cycle;Signal;HPM_P1;HPM_P2
2022/03/16 00:01:00;;;;;;;93.40;35.40;;;;;;;3.71;100.00;100617.28;12230403;19;20071;-79
2022/03/16 00:05:02;;;;;;;75.68;28.13;;;;;;;3.69;100.00;100617.50;12207306;19;20046;-78
2022/03/16 00:09:04;;;;;;;69.70;28.55;;;;;;;3.69;100.00;100622.94;12226415;19;20027;-79
2022/03/16 00:13:06;;;;;;;71.60;29.48;;;;;;;3.65;100.00;100625.19;12226482;19;20066;-79
2022/03/16 00:17:08;;;;;;;84.05;30.80;;;;;;;3.67;100.00;100624.16;12202971;19;20198;-79
2022/03/16 00:21:10;;;;;;;91.15;31.92;;;;;;;3.66;100.00;100620.59;12227353;19;20009;-79
2022/03/16 00:25:12;;;;;;;97.20;33.80;;;;;;;3.73;100.00;100620.69;12229320;19;20464;-79
2022/03/16 00:29:13;;;;;;;94.03;35.88;;;;;;;3.94;100.00;100611.78;12202039;19;20018;-80
2022/03/16 00:33:16;;;;;;;100.28;35.17;;;;;;;4.15;100.00;100616.50;12216866;19;20027;-79
2022/03/16 00:37:19;;;;;;;;;;;;;;;4.34;100.00;100626.81;12225067;19;20014;-80
2022/03/16 00:41:25;;;;;;;84.30;30.45;;;;;;;4.51;100.00;100622.84;12203707;19;19907;-80
2022/03/16 00:45:30;;;;;;;85.35;32.03;;;;;;;4.65;100.00;100623.88;12221289;19;20006;-79
2022/03/16 00:49:32;;;;;;;81.28;32.30;;;;;;;4.75;100.00;100621.69;12223972;19;20015;-79
2022/03/16 00:53:34;;;;;;;91.28;32.40;;;;;;;4.82;100.00;100619.03;12199621;19;20002;-79
2022/03/16 00:57:36;;;;;;;81.82;31.35;;;;;;;4.89;100.00;100627.31;12220958;19;20620;-79
2022/03/16 01:01:38;;;;;;;77.15;31.52;;;;;;;5.01;100.00;100615.66;12217993;19;21420;-79
2022/03/16 01:05:40;;;;;;;79.00;29.60;;;;;;;5.14;100.00;100614.13;12195669;19;20011;-81
2022/03/16 01:09:42;;;;;;;80.40;29.73;;;;;;;5.23;100.00;100618.41;12218661;19;20019;-79
2022/03/16 01:13:44;;;;;;;73.18;28.80;;;;;;;5.34;100.00;100622.50;12225250;19;20010;-79
2022/03/16 01:17:46;;;;;;;67.03;28.58;;;;;;;5.37;100.00;100624.84;12194214;19;20010;-81
2022/03/16 01:21:48;;;;;;;64.53;26.48;;;;;;;5.41;100.00;100627.00;12214733;19;20011;-80
2022/03/16 01:25:49;;;;;;;65.35;27.15;;;;;;;5.49;100.00;100624.13;12185989;19;20011;-79
2022/03/16 01:29:51;;;;;;;67.35;27.05;;;;;;;5.56;100.00;100615.13;12214821;19;20020;-80
2022/03/16 01:33:53;;;;;;;59.45;25.27;;;;;;;5.62;100.00;100623.41;12218275;19;20433;-80
2022/03/16 01:37:55;;;;;;;63.35;27.38;;;;;;;5.70;100.00;100627.88;12200019;19;20018;-79
2022/03/16 01:41:56;;;;;;;60.03;26.92;;;;;;;5.74;100.00;100626.44;12217576;19;20018;-80
2022/03/16 01:45:59;;;;;;;66.65;27.70;;;;;;;5.79;100.00;100626.69;12219114;19;20111;-79
2022/03/16 01:50:01;;;;;;;60.33;26.05;;;;;;;5.82;100.00;100639.13;12191214;19;20010;-82
2022/03/16 01:54:04;;;;;;;62.17;26.58;;;;;;;5.85;100.00;100628.63;12217757;19;20018;-80
2022/03/16 01:58:06;;;;;;;56.90;27.10;;;;;;;5.87;100.00;100628.44;12211701;19;20007;-79
2022/03/16 02:02:09;;;;;;;61.53;25.87;;;;;;;5.86;100.00;100635.78;12192619;19;20509;-79
2022/03/16 02:06:10;;;;;;;;;;;;;;;5.80;100.00;100636.59;12220205;19;20445;-79
2022/03/16 02:10:13;;;;;;;57.85;26.05;;;;;;;5.79;100.00;100640.34;12220630;19;19966;-79
2022/03/16 02:14:15;;;;;;;56.42;25.17;;;;;;;5.78;100.00;100638.66;12195337;19;20550;-80
2022/03/16 02:18:17;;;;;;;48.87;24.20;;;;;;;5.75;100.00;100635.50;12218793;19;20006;-79
2022/03/16 02:22:19;;;;;;;57.47;24.50;;;;;;;5.75;100.00;100643.69;12220698;19;20015;-81
2022/03/16 02:26:26;;;;;;;56.88;25.00;;;;;;;5.72;100.00;100640.31;12190939;19;20487;-80
2022/03/16 02:30:29;;;;;;;55.80;25.33;;;;;;;5.69;100.00;100639.88;12207977;19;20007;-80
2022/03/16 02:34:31;;;;;;;52.22;25.27;;;;;;;5.68;100.00;100636.28;12217048;19;20011;-80
2022/03/16 02:38:33;;;;;;;60.60;25.30;;;;;;;5.68;100.00;100639.03;12191697;19;20309;-80
2022/03/16 02:42:35;;;;;;;55.75;25.02;;;;;;;5.64;100.00;100640.44;12201970;19;20102;-80
2022/03/16 02:46:37;;;;;;;52.60;24.55;;;;;;;5.65;100.00;100644.00;12207841;19;20058;-80
2022/03/16 02:50:38;;;;;;;48.38;24.15;;;;;;;5.67;100.00;100652.88;12189325;19;20026;-79
2022/03/16 02:54:40;;;;;;;54.33;24.50;;;;;;;5.64;100.00;100645.06;12222385;19;20027;-79
2022/03/16 02:58:42;;;;;;;52.05;23.98;;;;;;;5.61;100.00;100649.03;12228032;19;20046;-79
2022/03/16 03:02:47;;;;;;;51.38;23.17;;;;;;;5.54;100.00;100644.56;12195120;19;20006;-79
2022/03/16 03:06:49;;;;;;;45.83;22.10;;;;;;;5.37;100.00;100654.91;12218712;19;20015;-80
2022/03/16 03:10:51;;;;;;;56.45;23.90;;;;;;;5.23;100.00;100659.38;12196968;19;20075;-80
2022/03/16 03:14:52;;;;;;;46.75;22.17;;;;;;;5.22;100.00;100663.19;12223551;19;20011;-81
2022/03/16 03:18:54;;;;;;;52.05;23.15;;;;;;;5.25;100.00;100677.28;12216087;19;20697;-82
2022/03/16 03:22:56;;;;;;;54.22;23.83;;;;;;;5.30;100.00;100668.53;12206987;19;20010;-79
2022/03/16 03:26:58;;;;;;;52.92;21.70;;;;;;;5.33;100.00;100668.13;12222178;19;20007;-80
2022/03/16 03:30:59;;;;;;;55.50;23.17;;;;;;;5.36;100.00;100661.44;12224064;19;20015;-79
2022/03/16 03:35:01;;;;;;;47.63;22.48;;;;;;;5.34;100.00;100663.50;12193924;19;20940;-79
2022/03/16 03:39:03;;;;;;;49.80;23.60;;;;;;;5.32;100.00;100665.56;12216761;19;20084;-79
2022/03/16 03:43:05;;;;;;;50.47;23.42;;;;;;;5.29;100.00;100661.34;12216533;19;20002;-79
2022/03/16 03:47:09;;;;;;;49.00;22.45;;;;;;;5.29;100.00;100657.78;12201705;19;20010;-80
2022/03/16 03:51:11;;;;;;;51.03;22.80;;;;;;;5.28;100.00;100676.06;12223987;19;20007;-79
2022/03/16 03:55:13;;;;;;;58.05;24.92;;;;;;;5.25;100.00;100665.53;12226147;19;20011;-79
2022/03/16 03:59:15;;;;;;;51.45;22.45;;;;;;;5.23;100.00;100673.94;12199709;19;20010;-79
2022/03/16 04:03:21;;;;;;;54.50;23.40;;;;;;;5.17;100.00;100674.66;12228587;19;20006;-80
2022/03/16 04:07:23;;;;;;;49.55;22.60;;;;;;;5.02;100.00;100677.44;12217719;19;20015;-79
2022/03/16 04:11:24;;;;;;;50.75;22.95;;;;;;;4.90;100.00;100683.59;12188257;19;20015;-80
2022/03/16 04:15:26;;;;;;;48.00;21.30;;;;;;;4.73;100.00;100675.66;12222922;19;20445;-80
2022/03/16 04:19:28;;;;;;;49.45;21.77;;;;;;;4.56;100.00;100682.34;12209186;19;20769;-80
2022/03/16 04:23:31;;;;;;;;;;;;;;;4.40;100.00;100679.78;12207737;19;20068;-79
2022/03/16 04:27:32;;;;;;;48.65;20.90;;;;;;;4.24;100.00;100689.84;12220657;19;19914;-80
2022/03/16 04:31:34;;;;;;;49.33;21.00;;;;;;;4.10;100.00;100687.97;12218621;19;20003;-80
2022/03/16 04:35:36;;;;;;;50.17;22.02;;;;;;;3.99;100.00;100694.72;12199124;19;20007;-81
2022/03/16 04:39:37;;;;;;;47.13;21.60;;;;;;;3.89;100.00;100685.94;12223368;19;20010;-79
2022/03/16 04:43:39;;;;;;;55.38;22.60;;;;;;;3.75;100.00;100684.03;12220424;19;20010;-79
2022/03/16 04:47:41;;;;;;;54.88;22.02;;;;;;;3.67;100.00;100692.31;12196947;19;20018;-79
2022/03/16 04:51:42;;;;;;;52.42;22.67;;;;;;;3.56;100.00;100690.84;12215595;19;20024;-80
2022/03/16 04:55:44;;;;;;;57.50;22.02;;;;;;;3.47;100.00;100686.50;12219202;19;20009;-80
2022/03/16 04:59:46;;;;;;;53.25;22.85;;;;;;;3.36;100.00;100680.47;12183947;19;20023;-80
2022/03/16 05:03:47;;;;;;;47.92;19.88;;;;;;;3.25;100.00;100685.47;12211720;19;20093;-80
2022/03/16 05:07:49;;;;;;;60.77;23.30;;;;;;;3.15;100.00;100685.69;12198526;19;20031;-82
2022/03/16 05:11:51;;;;;;;52.92;21.27;;;;;;;3.05;100.00;100680.47;12222031;19;20018;-81
2022/03/16 05:15:53;;;;;;;53.55;21.23;;;;;;;2.98;100.00;100682.25;12221520;19;20014;-81
2022/03/16 05:19:54;;;;;;;62.83;23.77;;;;;;;2.91;100.00;100684.81;12187440;19;20512;-80
2022/03/16 05:23:56;;;;;;;70.20;26.88;;;;;;;2.83;100.00;100678.59;12223036;19;20031;-80
2022/03/16 05:27:58;;;;;;;66.00;24.50;;;;;;;2.76;100.00;100683.03;12237242;19;20002;-82
2022/03/16 05:31:59;;;;;;;74.80;27.30;;;;;;;2.68;100.00;100689.38;12212279;19;20420;-81
2022/03/16 05:36:02;;;;;;;67.95;24.42;;;;;;;2.62;100.00;100688.19;12249226;19;20010;-80
2022/03/16 05:40:06;;;;;;;60.63;23.77;;;;;;;2.57;100.00;100687.88;12238425;19;20098;-81
2022/03/16 05:44:09;;;;;;;72.18;23.35;;;;;;;2.50;100.00;100701.34;12207286;19;20010;-79
2022/03/16 05:48:11;;;;;;;71.95;25.00;;;;;;;2.43;100.00;100699.47;12219621;19;20020;-80
2022/03/16 05:52:13;;;;;;;59.63;21.75;;;;;;;2.40;100.00;100697.13;12213515;19;20023;-81
2022/03/16 05:56:14;;;;;;;66.70;24.00;;;;;;;2.41;100.00;100694.22;12198523;19;20014;-79
2022/03/16 06:00:21;;;;;;;65.60;22.85;;;;;;;2.44;100.00;100706.59;12218153;19;20031;-79
2022/03/16 06:04:23;;;;;;;62.38;23.73;;;;;;;2.43;100.00;100703.03;12218529;19;20023;-79
2022/03/16 06:08:25;;;;;;;62.35;21.85;;;;;;;2.46;100.00;100704.56;12198861;19;20014;-80
2022/03/16 06:12:29;;;;;;;65.25;23.85;;;;;;;2.51;100.00;100699.47;12213575;19;20164;-79
2022/03/16 06:16:31;;;;;;;62.70;22.58;;;;;;;2.58;100.00;100713.19;12213291;19;20030;-79
2022/03/16 06:20:34;;;;;;;62.23;22.13;;;;;;;2.71;100.00;100724.41;12197094;19;20074;-79
2022/03/16 06:24:35;;;;;;;65.07;23.45;;;;;;;2.85;100.00;100725.50;12209391;19;20027;-79
2022/03/16 06:28:37;;;;;;;58.33;22.88;;;;;;;2.96;100.00;100725.13;12216931;19;20011;-80
2022/03/16 06:32:39;;;;;;;57.97;21.15;;;;;;;3.13;100.00;100732.19;12194778;19;20018;-81
2022/03/16 06:36:40;;;;;;;62.58;22.05;;;;;;;3.28;100.00;100726.81;12218122;19;20013;-81
2022/03/16 06:40:42;;;;;;;60.33;22.20;;;;;;;3.40;100.00;100728.09;12214787;19;20031;-82
2022/03/16 06:44:45;;;;;;;65.28;23.85;;;;;;;3.55;100.00;100738.22;12190985;19;20014;-81
2022/03/16 06:48:46;;;;;;;48.22;20.80;;;;;;;3.69;100.00;100742.88;12216472;19;20035;-80
2022/03/16 06:52:48;;;;;;;54.67;21.63;;;;;;;3.84;100.00;100726.56;12211549;19;20010;-80
2022/03/16 06:56:50;;;;;;;43.50;19.58;;;;;;;3.98;100.00;100724.91;12219127;19;20118;-81
2022/03/16 07:00:51;;;;;;;51.63;20.40;;;;;;;4.06;100.00;100727.56;12217006;19;20007;-82
2022/03/16 07:04:53;;;;;;;54.58;21.42;;;;;;;4.14;100.00;100734.84;12192439;19;20015;-81
2022/03/16 07:08:55;;;;;;;46.72;18.85;;;;;;;4.22;100.00;100721.94;12213614;19;20472;-82
2022/03/16 07:12:57;;;;;;;50.00;18.33;;;;;;;4.26;100.00;100714.25;12218582;19;20072;-83
2022/03/16 07:16:59;;;;;;;50.30;20.57;;;;;;;4.39;100.00;100721.78;12194797;19;20724;-81
2022/03/16 07:21:01;;;;;;;;;;;;;;;4.51;100.00;100723.84;12225085;19;20003;-81
2022/03/16 07:25:05;;;;;;;46.15;18.58;;;;;;;4.67;100.00;100720.09;12215104;19;19935;-82
2022/03/16 07:29:06;;;;;;;44.53;18.50;;;;;;;4.89;100.00;100715.53;12193501;19;20022;-81
2022/03/16 07:33:09;;;;;;;46.15;18.27;;;;;;;5.18;100.00;100722.00;12195507;19;20011;-81
2022/03/16 07:37:11;;;;;;;38.75;18.13;;;;;;;5.51;100.00;100718.78;12200901;19;20095;-81
2022/03/16 07:41:14;;;;;;;40.50;18.00;;;;;;;5.71;100.00;100725.25;12191306;19;20062;-81
2022/03/16 07:45:18;;;;;;;34.60;17.10;;;;;;;5.96;100.00;100744.06;12201813;19;20082;-82
2022/03/16 07:49:20;;;;;;;34.53;16.38;;;;;;;6.12;100.00;100739.13;12192243;19;20006;-81
2022/03/16 07:53:23;;;;;;;32.33;16.55;;;;;;;6.30;100.00;100744.13;12167836;19;20019;-81
2022/03/16 07:57:31;;;;;;;35.45;17.88;;;;;;;6.52;100.00;100755.03;12201365;19;20080;-81
2022/03/16 08:01:34;;;;;;;30.13;15.05;;;;;;;6.78;100.00;100757.94;12214259;19;20025;-81
2022/03/16 08:05:35;;;;;;;29.15;15.95;;;;;;;6.93;100.00;100751.47;12188874;19;20014;-81
2022/03/16 08:09:37;;;;;;;27.10;14.63;;;;;;;7.33;100.00;100760.72;12212316;19;20473;-80
2022/03/16 08:13:40;;;;;;;25.80;14.10;;;;;;;7.56;100.00;100765.00;12210030;19;20006;-79
2022/03/16 08:17:42;;;;;;;27.63;14.77;;;;;;;7.73;100.00;100758.06;12184776;19;20074;-79
2022/03/16 08:21:45;;;;;;;27.65;16.85;;;;;;;7.81;100.00;100760.63;12211732;19;20070;-79
2022/03/16 08:25:47;;;;;;;28.42;14.85;;;;;;;7.90;100.00;100759.38;12211911;19;20015;-80
2022/03/16 08:29:49;;;;;;;26.67;15.68;;;;;;;8.14;100.00;100766.13;12187876;19;20113;-79
2022/03/16 08:33:51;;;;;;;28.45;14.32;;;;;;;8.14;100.00;100774.38;12209633;19;20023;-79
2022/03/16 08:37:54;;;;;;;23.80;12.82;;;;;;;8.45;100.00;100778.44;12186411;19;20453;-81
2022/03/16 08:41:56;;;;;;;25.58;14.23;;;;;;;8.61;100.00;100778.00;12212798;19;20527;-80
2022/03/16 08:45:58;;;;;;;22.33;13.27;;;;;;;8.78;100.00;100767.41;12213343;19;20031;-79
2022/03/16 08:50:00;;;;;;;;;;;;;;;8.85;99.52;100768.22;12188995;19;20021;-79
2022/03/16 08:54:02;;;;;;;24.63;14.35;;;;;;;9.10;98.88;100762.00;12207220;19;19911;-79
2022/03/16 08:58:04;;;;;;;23.27;13.38;;;;;;;9.48;98.84;100767.56;12204628;19;20028;-79
2022/03/16 09:02:10;;;;;;;22.42;12.68;;;;;;;9.64;95.89;100755.22;12191051;19;20006;-79
2022/03/16 09:06:18;;;;;;;;;;;;;;;9.82;94.17;100766.31;12200351;19;20013;-80
2022/03/16 09:10:20;;;;;;;17.52;10.98;;;;;;;9.94;93.02;100749.94;12206824;19;20376;-80
2022/03/16 09:14:23;;;;;;;20.60;13.13;;;;;;;10.07;91.90;100746.22;12185541;19;20031;-80
2022/03/16 09:18:27;;;;;;;19.92;11.98;;;;;;;10.17;91.01;100729.19;12204798;19;20003;-80
2022/03/16 09:22:32;;;;;;;21.98;13.30;;;;;;;10.29;90.38;100730.19;12215327;19;20013;-80
2022/03/16 09:26:34;;;;;;;;;;;;;;;10.30;86.95;100720.88;12186652;19;20011;-79
2022/03/16 09:30:36;;;;;;;19.17;11.70;;;;;;;10.58;87.36;100722.28;12201052;19;19914;-79
2022/03/16 09:34:40;;;;;;;18.05;11.85;;;;;;;10.65;84.77;100712.06;12199576;19;20014;-79
2022/03/16 09:38:42;;;;;;;16.88;11.23;;;;;;;10.87;83.69;100710.50;12183089;19;20385;-79
2022/03/16 09:42:45;;;;;;;16.48;10.52;;;;;;;11.04;82.21;100707.16;12203954;19;20629;-79
2022/03/16 09:46:51;;;;;;;17.20;11.73;;;;;;;11.18;78.77;100701.22;12203182;19;20520;-78
2022/03/16 09:50:54;;;;;;;17.52;10.60;;;;;;;11.37;79.88;100695.69;12180467;19;20062;-79
2022/03/16 09:54:55;;;;;;;20.45;10.70;;;;;;;11.52;78.41;100695.25;12208635;19;20006;-78
2022/03/16 09:58:57;;;;;;;13.93;9.60;;;;;;;11.47;75.04;100681.31;12170558;19;20010;-78
2022/03/16 10:03:02;;;;;;;15.65;10.27;;;;;;;11.63;75.55;100687.00;12201156;19;20504;-80
2022/03/16 10:07:05;;;;;;;15.88;9.95;;;;;;;11.88;77.00;100679.66;12192306;19;20469;-79
2022/03/16 10:15:34;;;;;;;15.27;10.40;;;;;;;12.03;75.55;100671.75;12203938;19;20406;-79
2022/03/16 10:19:35;;;;;;;15.60;9.80;;;;;;;11.90;73.59;100678.34;12199420;19;20028;-78
2022/03/16 10:23:39;;;;;;;17.17;10.63;;;;;;;12.00;73.84;100686.88;12187631;19;20010;-79
2022/03/16 10:27:42;;;;;;;;;;;;;;;12.20;73.89;100681.00;12204203;19;20840;-78
2022/03/16 10:32:01;;;;;;;14.40;9.48;;;;;;;12.40;72.67;100672.34;12195409;19;19958;-79
2022/03/16 10:36:05;;;;;;;16.08;10.55;;;;;;;12.62;72.49;100678.13;12179770;19;20018;-79
2022/03/16 10:40:17;;;;;;;15.43;9.50;;;;;;;12.83;71.88;100670.28;12200761;19;20003;-78
2022/03/16 10:49:06;;;;;;;14.15;9.95;;;;;;;13.26;69.77;100647.66;12193540;19;20018;-78
2022/03/16 10:53:10;;;;;;;12.80;9.27;;;;;;;13.37;69.24;100648.69;12168581;19;20032;-78
2022/03/16 10:57:13;;;;;;;12.68;8.98;;;;;;;13.63;68.95;100634.22;12193880;19;20082;-79
2022/03/16 11:01:16;;;;;;;13.05;9.02;;;;;;;13.77;67.29;100647.75;12197795;19;20027;-79
2022/03/16 11:05:28;;;;;;;13.82;9.48;;;;;;;13.85;66.11;100647.34;12180839;19;20018;-79
2022/03/16 11:09:31;;;;;;;14.30;9.30;;;;;;;14.03;67.31;100649.00;12189135;19;20126;-79
2022/03/16 11:13:36;;;;;;;14.32;9.10;;;;;;;14.11;64.98;100657.75;12209151;19;20015;-79
2022/03/16 11:22:28;;;;;;;12.40;8.82;;;;;;;14.74;64.63;100643.72;12211760;19;20040;-79
2022/03/16 11:27:22;;;;;;;13.88;9.82;;;;;;;14.85;61.86;100628.88;12177587;19;20493;-78
2022/03/16 11:31:34;;;;;;;12.13;8.10;;;;;;;14.74;58.39;100618.75;12204645;19;20018;-77
2022/03/16 11:35:44;;;;;;;13.27;8.70;;;;;;;15.09;61.20;100614.75;12187895;19;20006;-79
2022/03/16 11:39:47;;;;;;;12.55;8.48;;;;;;;15.21;60.14;100609.88;12201317;19;20010;-78
2022/03/16 11:43:56;;;;;;;10.88;7.53;;;;;;;15.22;57.72;100606.81;12175334;19;20033;-79
2022/03/16 11:47:59;;;;;;;10.23;7.13;;;;;;;15.36;55.63;100598.91;12205745;19;20007;-79
2022/03/16 11:52:04;;;;;;;9.47;7.47;;;;;;;15.27;54.83;100603.28;12198151;19;20017;-79
2022/03/16 11:56:36;;;;;;;10.13;7.40;;;;;;;15.61;55.15;100592.75;12182879;19;20508;-78
2022/03/16 12:00:39;;;;;;;10.07;7.75;;;;;;;16.06;54.67;100582.31;12196179;19;20027;-79
2022/03/16 12:04:46;;;;;;;15.50;8.02;;;;;;;16.42;53.41;100580.59;12207793;19;20014;-79
2022/03/16 12:08:52;;;;;;;10.85;8.10;;;;;;;16.24;51.88;100579.09;12178662;19;20014;-79
2022/03/16 12:12:57;;;;;;;10.07;7.70;;;;;;;16.41;52.25;100578.91;12200707;19;20007;-78
2022/03/16 12:17:14;;;;;;;9.95;7.50;;;;;;;16.41;52.44;100571.38;12180765;19;20032;-79
2022/03/16 12:21:30;;;;;;;12.18;7.68;;;;;;;16.23;53.29;100566.28;12205475;19;20014;-79
2022/03/16 12:25:34;;;;;;;11.18;7.57;;;;;;;16.02;52.44;100556.16;12192648;19;20006;-79
2022/03/16 12:29:38;;;;;;;11.50;7.25;;;;;;;16.33;52.54;100546.03;12176077;19;20399;-79
2022/03/16 12:33:52;;;;;;;11.23;7.40;;;;;;;16.80;51.85;100540.41;12197718;19;20445;-80
2022/03/16 12:38:22;;;;;;;9.23;7.35;;;;;;;17.36;51.85;100531.34;12175177;19;20014;-79
2022/03/16 12:42:33;;;;;;;8.98;7.45;;;;;;;18.14;50.02;100531.03;12204567;19;20014;-79
2022/03/16 12:46:53;;;;;;;9.27;7.32;;;;;;;18.23;45.63;100525.69;12193121;19;20010;-79
2022/03/16 12:50:57;;;;;;;9.38;6.95;;;;;;;19.08;47.20;100525.63;12179386;19;20477;-79
2022/03/16 12:55:01;;;;;;;8.75;6.68;;;;;;;19.53;46.36;100522.78;12205317;19;20006;-77
2022/03/16 12:59:04;;;;;;;9.15;7.47;;;;;;;19.82;46.24;100519.22;12178254;19;20007;-77
2022/03/16 13:03:15;;;;;;;10.38;7.78;;;;;;;20.10;45.46;100504.34;12201577;19;20071;-77
2022/03/16 13:07:21;;;;;;;9.95;8.50;;;;;;;19.55;45.46;100503.75;12195547;19;20014;-77
2022/03/16 13:11:26;;;;;;;11.80;7.90;;;;;;;18.81;47.11;100500.09;12176571;19;20464;-78
2022/03/16 13:15:30;;;;;;;10.68;7.85;;;;;;;18.16;48.17;100494.50;12205561;19;20014;-79
2022/03/16 13:24:11;;;;;;;9.38;7.57;;;;;;;17.17;48.51;100492.06;12174316;19;20022;-79
2022/03/16 13:28:16;;;;;;;10.23;7.60;;;;;;;17.45;48.93;100495.41;12199653;19;20094;-80
2022/03/16 13:32:40;;;;;;;9.90;7.32;;;;;;;17.27;47.87;100502.38;12185609;19;20060;-79
2022/03/16 13:36:44;;;;;;;8.65;7.03;;;;;;;17.38;49.39;100497.66;12206165;19;20204;-81
2022/03/16 13:40:47;;;;;;;14.15;9.98;;;;;;;17.19;49.42;100489.00;12212830;19;20017;-79
2022/03/16 13:45:12;;;;;;;11.95;8.88;;;;;;;17.09;50.08;100489.81;12167416;19;20496;-79
2022/03/16 13:49:15;;;;;;;12.23;8.85;;;;;;;16.83;50.54;100483.38;12201441;19;20037;-79
2022/03/16 13:53:24;;;;;;;13.15;8.80;;;;;;;16.49;51.58;100480.19;12170408;19;20563;-79
2022/03/16 13:57:29;;;;;;;11.93;8.77;;;;;;;16.39;52.28;100472.66;12203872;19;20365;-80
2022/03/16 14:01:31;;;;;;;12.30;8.88;;;;;;;16.26;52.10;100471.19;12198562;19;20402;-80
2022/03/16 14:05:40;;;;;;;11.93;8.93;;;;;;;15.96;52.78;100460.78;12182484;19;20022;-79
2022/03/16 14:09:42;;;;;;;13.45;9.43;;;;;;;15.95;53.15;100457.16;12164255;19;20117;-79
2022/03/16 14:24:42;;;;;;;12.68;8.88;;;;;;;15.59;53.65;100444.16;12204417;19;20014;-80
2022/03/16 14:28:46;;;;;;;12.70;10.23;;;;;;;15.42;53.91;100459.00;12198202;19;20497;-79
2022/03/16 14:32:49;;;;;;;11.32;8.77;;;;;;;15.53;54.19;100450.75;12165943;19;20018;-78
2022/03/16 14:36:52;;;;;;;13.82;9.35;;;;;;;15.36;54.11;100460.06;12198732;19;20011;-79
2022/03/16 14:41:09;;;;;;;12.77;8.85;;;;;;;15.37;54.25;100458.97;12174408;19;20006;-80
2022/03/16 14:45:13;;;;;;;13.43;8.70;;;;;;;15.42;54.49;100447.91;12188584;19;20011;-79
2022/03/16 14:49:14;;;;;;;12.48;9.70;;;;;;;15.26;54.53;100446.97;12197759;19;20015;-79
2022/03/16 14:53:23;;;;;;;13.80;10.32;;;;;;;15.16;54.38;100454.34;12194848;19;20026;-79
2022/03/16 14:57:26;;;;;;;15.35;10.35;;;;;;;15.00;54.83;100445.06;12207032;19;20014;-79
2022/03/16 15:01:47;;;;;;;14.23;9.73;;;;;;;14.85;55.02;100448.53;12217892;19;20082;-79
2022/03/16 15:05:49;;;;;;;14.82;9.10;;;;;;;14.85;55.19;100450.47;12190787;19;20025;-79
2022/03/16 15:09:51;;;;;;;13.52;9.35;;;;;;;14.76;55.81;100434.28;12208341;19;20085;-79
2022/03/16 15:13:52;;;;;;;15.00;10.25;;;;;;;14.56;55.19;100432.16;12185770;19;20351;-80
2022/03/16 15:17:55;;;;;;;15.48;9.98;;;;;;;14.41;55.57;100445.81;12211426;19;20022;-77
2022/03/16 15:21:57;;;;;;;15.75;10.48;;;;;;;14.40;55.77;100421.97;12216865;19;20052;-80
2022/03/16 15:25:59;;;;;;;15.00;10.90;;;;;;;14.31;56.33;100423.53;12195205;19;21656;-79
2022/03/16 15:30:01;;;;;;;14.05;10.20;;;;;;;14.28;56.91;100435.13;12166527;19;20849;-80
2022/03/16 15:34:07;;;;;;;17.27;11.38;;;;;;;14.26;56.44;100429.00;12211567;19;20014;-79
2022/03/16 15:38:10;;;;;;;16.70;11.48;;;;;;;14.21;57.16;100423.38;12189505;19;20082;-79
2022/03/16 16:19:55;;;;;;;19.23;12.88;;;;;;;13.43;60.00;100390.25;12232470;19;20467;-80
2022/03/16 16:24:36;;;;;;;20.60;14.35;;;;;;;13.39;60.78;100389.91;12154607;19;20022;-80
2022/03/16 16:28:38;;;;;;;22.92;14.93;;;;;;;13.36;61.21;100375.75;12230238;19;20029;-80
2022/03/16 16:32:40;;;;;;;20.88;14.68;;;;;;;13.36;61.32;100376.59;12175269;19;20034;-79
2022/03/16 16:36:42;;;;;;;22.23;14.52;;;;;;;13.37;61.54;100381.03;12199021;19;20503;-80
2022/03/16 16:40:45;;;;;;;23.38;15.18;;;;;;;13.25;61.79;100377.53;12203491;19;20006;-80
2022/03/16 16:44:52;;;;;;;25.13;17.00;;;;;;;13.04;62.43;100370.81;12183533;19;20007;-79
2022/03/16 16:48:56;;;;;;;25.05;16.08;;;;;;;12.86;63.05;100369.13;12202055;19;20029;-80
2022/03/16 16:52:59;;;;;;;;;;;;;;;12.72;63.70;100384.38;12185703;19;20422;-79
2022/03/16 16:57:11;;;;;;;22.45;16.10;;;;;;;12.49;65.13;100357.69;12204537;19;20026;-81
2022/03/16 17:01:14;;;;;;;25.83;16.17;;;;;;;12.35;65.31;100367.41;12207254;19;20015;-79
2022/03/16 17:05:16;;;;;;;24.83;15.80;;;;;;;12.20;66.10;100366.03;12176901;19;20021;-79
2022/03/16 17:09:26;;;;;;;23.80;15.68;;;;;;;12.08;66.53;100356.97;12192408;19;20091;-79
2022/03/16 17:13:30;;;;;;;23.65;15.27;;;;;;;11.97;66.91;100371.66;12210356;19;20435;-79
2022/03/16 17:17:33;;;;;;;24.35;15.40;;;;;;;11.85;67.84;100391.84;12179364;19;20027;-80
2022/03/16 17:21:36;;;;;;;24.02;15.82;;;;;;;11.75;67.91;100399.03;12210690;19;20027;-79
2022/03/16 17:25:43;;;;;;;24.55;15.18;;;;;;;11.72;67.73;100400.38;12200964;19;20014;-79
2022/03/16 17:29:48;;;;;;;23.88;15.25;;;;;;;11.62;68.21;100389.09;12176117;19;20083;-80
2022/03/16 17:33:54;;;;;;;25.48;16.48;;;;;;;11.52;68.40;100386.13;12196814;19;20426;-79
2022/03/16 17:37:56;;;;;;;28.10;16.48;;;;;;;11.44;69.19;100372.69;12187208;19;20011;-79
2022/03/16 17:46:28;;;;;;;26.70;16.83;;;;;;;11.29;70.58;100370.44;12202954;19;20014;-79
2022/03/16 17:50:52;;;;;;;19.47;14.10;;;;;;;11.27;70.47;100373.41;12171843;19;20034;-79
2022/03/16 17:54:57;;;;;;;24.05;15.93;;;;;;;11.27;70.00;100376.16;12203120;19;20014;-79
2022/03/16 17:58:58;;;;;;;24.67;16.67;;;;;;;11.24;69.85;100375.81;12171822;19;20486;-80
2022/03/16 18:03:03;;;;;;;24.52;15.45;;;;;;;11.24;69.98;100384.09;12208532;19;20010;-79
2022/03/16 18:07:05;;;;;;;26.13;16.73;;;;;;;11.17;70.46;100374.03;12214554;19;20064;-79
2022/03/16 18:15:29;;;;;;;24.10;15.88;;;;;;;11.13;70.46;100372.84;12196869;19;20011;-79
2022/03/16 18:19:30;;;;;;;24.80;15.90;;;;;;;11.11;70.71;100374.16;12192653;19;20030;-79
2022/03/16 18:23:35;;;;;;;24.45;16.65;;;;;;;11.12;70.21;100381.34;12177197;19;20030;-79
2022/03/16 18:27:38;;;;;;;26.27;16.23;;;;;;;11.09;70.39;100379.88;12197903;19;20519;-79
2022/03/16 18:31:41;;;;;;;25.80;16.17;;;;;;;11.03;70.86;100371.75;12196352;19;20476;-78
2022/03/16 18:35:46;;;;;;;25.23;16.38;;;;;;;10.98;71.05;100380.75;12180195;19;20017;-80
2022/03/16 18:39:51;;;;;;;;;;;;;;;10.99;71.23;100387.09;12184128;19;20014;-79
2022/03/16 18:43:55;;;;;;;27.05;16.50;;;;;;;10.97;71.23;100378.22;12161275;19;20679;-80
2022/03/16 18:48:00;;;;;;;25.27;16.20;;;;;;;10.96;71.18;100377.38;12188582;19;20007;-79
2022/03/16 18:52:14;;;;;;;25.17;16.58;;;;;;;10.95;71.24;100382.06;12184060;19;20020;-79
2022/03/16 18:56:18;;;;;;;23.63;14.70;;;;;;;10.96;71.06;100377.38;12184050;19;20066;-78
2022/03/16 19:00:19;;;;;;;30.35;16.60;;;;;;;10.88;71.83;100364.78;12205246;19;20032;-78
2022/03/16 19:04:21;;;;;;;23.10;15.77;;;;;;;10.89;71.48;100360.13;12204906;19;20091;-78
2022/03/16 19:08:28;;;;;;;25.23;14.98;;;;;;;10.87;71.52;100362.28;12177145;19;20018;-78
2022/03/16 19:16:51;;;;;;;23.38;15.70;;;;;;;10.86;71.40;100364.19;12180599;19;20025;-79
2022/03/16 19:20:53;;;;;;;25.20;15.48;;;;;;;10.89;71.00;100373.91;12211040;19;20364;-79
2022/03/16 19:24:55;;;;;;;24.77;15.38;;;;;;;10.87;71.33;100374.13;12215128;19;20011;-79
2022/03/16 19:28:57;;;;;;;26.03;16.40;;;;;;;10.87;71.06;100387.91;12189986;19;20014;-79
2022/03/16 19:33:00;;;;;;;26.60;16.00;;;;;;;10.87;70.84;100387.09;12205387;19;20019;-79
2022/03/16 19:37:03;;;;;;;24.55;15.98;;;;;;;10.89;70.70;100404.25;12206798;19;20019;-78
2022/03/16 19:41:14;;;;;;;26.08;15.13;;;;;;;10.89;70.46;100391.28;12197552;19;20356;-78
2022/03/16 19:45:15;;;;;;;27.50;15.65;;;;;;;10.84;70.94;100380.13;12205411;19;20018;-79